sensor_id;sensor_type;location;lat;lon;timestamp;pressure;altitude;pressure_sealevel;temperature;humidity
37291;BME280;23175;-33.706;151.094;2023-03-23T00:02:31;100037.61;;;21.55;52.22
37291;BME280;23175;-33.706;151.094;2023-03-23T00:05:02;100040.73;;;20.95;52.52
37291;BME280;23175;-33.706;151.094;2023-03-23T00:07:32;100043.76;;;22.58;49.71
37291;BME280;23175;-33.706;151.094;2023-03-23T00:10:02;100042.50;;;20.68;52.67
37291;BME280;23175;-33.706;151.094;2023-03-23T00:12:33;100042.19;;;22.37;50.67
37291;BME280;23175;-33.706;151.094;2023-03-23T00:15:05;100035.69;;;22.41;49.94
37291;BME280;23175;-33.706;151.094;2023-03-23T00:17:36;100026.73;;;21.65;50.93
37291;BME280;23175;-33.706;151.094;2023-03-23T00:20:08;100022.52;;;21.24;51.48
37291;BME280;23175;-33.706;151.094;2023-03-23T00:22:39;100022.95;;;21.57;51.12
37291;BME280;23175;-33.706;151.094;2023-03-23T00:25:09;100023.84;;;24.66;45.55
37291;BME280;23175;-33.706;151.094;2023-03-23T00:27:40;100024.90;;;23.73;47.18
37291;BME280;23175;-33.706;151.094;2023-03-23T00:30:11;100020.86;;;20.97;52.23
37291;BME280;23175;-33.706;151.094;2023-03-23T00:32:41;100016.02;;;24.16;46.05
37291;BME280;23175;-33.706;151.094;2023-03-23T00:35:12;100011.88;;;25.07;44.37
37291;BME280;23175;-33.706;151.094;2023-03-23T00:37:42;100018.30;;;23.22;46.97
37291;BME280;23175;-33.706;151.094;2023-03-23T00:40:13;100019.05;;;22.30;49.40
37291;BME280;23175;-33.706;151.094;2023-03-23T00:42:43;100018.94;;;24.12;46.96
37291;BME280;23175;-33.706;151.094;2023-03-23T00:45:13;100016.16;;;19.44;55.03
37291;BME280;23175;-33.706;151.094;2023-03-23T00:47:43;100012.70;;;23.71;48.45
37291;BME280;23175;-33.706;151.094;2023-03-23T00:50:14;100013.57;;;23.38;48.53
37291;BME280;23175;-33.706;151.094;2023-03-23T00:52:46;100005.72;;;22.37;50.74
37291;BME280;23175;-33.706;151.094;2023-03-23T00:55:16;100000.06;;;20.97;52.53
37291;BME280;23175;-33.706;151.094;2023-03-23T00:57:47;99995.03;;;22.18;50.29
37291;BME280;23175;-33.706;151.094;2023-03-23T01:00:18;99993.99;;;22.70;49.64
37291;BME280;23175;-33.706;151.094;2023-03-23T01:02:48;99995.78;;;22.54;50.38
37291;BME280;23175;-33.706;151.094;2023-03-23T01:05:18;99991.22;;;20.18;53.87
37291;BME280;23175;-33.706;151.094;2023-03-23T01:07:48;99990.82;;;21.05;53.35
37291;BME280;23175;-33.706;151.094;2023-03-23T01:10:18;99989.37;;;20.79;52.61
37291;BME280;23175;-33.706;151.094;2023-03-23T01:12:49;99991.57;;;22.78;48.98
37291;BME280;23175;-33.706;151.094;2023-03-23T01:15:20;99995.47;;;22.75;49.70
37291;BME280;23175;-33.706;151.094;2023-03-23T01:17:50;99999.26;;;24.05;48.02
37291;BME280;23175;-33.706;151.094;2023-03-23T01:20:20;99997.62;;;22.80;49.07
37291;BME280;23175;-33.706;151.094;2023-03-23T01:22:50;99996.34;;;20.55;52.52
37291;BME280;23175;-33.706;151.094;2023-03-23T01:25:21;99994.93;;;24.38;46.85
37291;BME280;23175;-33.706;151.094;2023-03-23T01:27:51;99992.73;;;21.85;50.20
37291;BME280;23175;-33.706;151.094;2023-03-23T01:30:22;99988.48;;;21.13;52.88
37291;BME280;23175;-33.706;151.094;2023-03-23T01:32:53;99988.53;;;23.56;48.96
37291;BME280;23175;-33.706;151.094;2023-03-23T01:35:23;99985.79;;;24.47;46.63
37291;BME280;23175;-33.706;151.094;2023-03-23T01:37:54;99987.31;;;23.69;47.81
37291;BME280;23175;-33.706;151.094;2023-03-23T01:40:26;99980.02;;;24.75;44.52
37291;BME280;23175;-33.706;151.094;2023-03-23T01:42:56;99978.80;;;23.08;48.01
37291;BME280;23175;-33.706;151.094;2023-03-23T01:45:31;99968.14;;;19.97;52.52
37291;BME280;23175;-33.706;151.094;2023-03-23T01:48:06;99963.56;;;21.84;48.56
37291;BME280;23175;-33.706;151.094;2023-03-23T01:50:43;99965.24;;;22.54;49.55
37291;BME280;23175;-33.706;151.094;2023-03-23T01:53:15;99966.08;;;23.92;46.97
37291;BME280;23175;-33.706;151.094;2023-03-23T01:55:46;99963.36;;;22.26;50.93
37291;BME280;23175;-33.706;151.094;2023-03-23T01:58:21;99955.70;;;22.30;49.87
37291;BME280;23175;-33.706;151.094;2023-03-23T02:00:55;99943.93;;;25.18;46.48
37291;BME280;23175;-33.706;151.094;2023-03-23T02:03:27;99936.62;;;21.82;50.93
37291;BME280;23175;-33.706;151.094;2023-03-23T02:05:58;99923.74;;;22.23;50.37
37291;BME280;23175;-33.706;151.094;2023-03-23T02:08:29;99918.73;;;22.39;51.65
37291;BME280;23175;-33.706;151.094;2023-03-23T02:11:00;99914.32;;;20.50;52.58
37291;BME280;23175;-33.706;151.094;2023-03-23T02:13:30;99909.83;;;22.46;49.73
37291;BME280;23175;-33.706;151.094;2023-03-23T02:16:06;99903.04;;;22.71;48.21
37291;BME280;23175;-33.706;151.094;2023-03-23T02:18:51;99903.21;;;23.03;49.30
37291;BME280;23175;-33.706;151.094;2023-03-23T02:21:39;99897.59;;;23.44;47.69
37291;BME280;23175;-33.706;151.094;2023-03-23T02:24:42;99892.78;;;25.01;45.29
37291;BME280;23175;-33.706;151.094;2023-03-23T02:27:20;99892.17;;;26.31;42.78
37291;BME280;23175;-33.706;151.094;2023-03-23T02:30:07;99893.49;;;24.93;45.91
37291;BME280;23175;-33.706;151.094;2023-03-23T02:33:20;99889.68;;;22.59;49.00
37291;BME280;23175;-33.706;151.094;2023-03-23T02:35:58;99884.43;;;22.20;49.72
37291;BME280;23175;-33.706;151.094;2023-03-23T02:38:32;99880.20;;;22.62;48.17
37291;BME280;23175;-33.706;151.094;2023-03-23T02:41:04;99879.04;;;21.68;50.36
37291;BME280;23175;-33.706;151.094;2023-03-23T02:43:42;99877.34;;;21.40;52.03
37291;BME280;23175;-33.706;151.094;2023-03-23T02:46:15;99876.79;;;24.04;46.41
37291;BME280;23175;-33.706;151.094;2023-03-23T02:48:47;99873.53;;;22.36;50.50
37291;BME280;23175;-33.706;151.094;2023-03-23T02:51:21;99864.72;;;24.29;46.97
37291;BME280;23175;-33.706;151.094;2023-03-23T02:53:55;99858.15;;;22.28;47.51
37291;BME280;23175;-33.706;151.094;2023-03-23T02:56:27;99853.02;;;24.75;43.15
37291;BME280;23175;-33.706;151.094;2023-03-23T02:58:59;99854.23;;;22.43;47.26
37291;BME280;23175;-33.706;151.094;2023-03-23T03:02:05;99851.38;;;24.83;43.71
37291;BME280;23175;-33.706;151.094;2023-03-23T03:04:38;99858.38;;;23.41;47.68
37291;BME280;23175;-33.706;151.094;2023-03-23T03:07:26;99859.51;;;21.83;48.06
37291;BME280;23175;-33.706;151.094;2023-03-23T03:10:01;99859.13;;;24.79;42.77
37291;BME280;23175;-33.706;151.094;2023-03-23T03:12:38;99861.69;;;22.43;46.62
37291;BME280;23175;-33.706;151.094;2023-03-23T03:15:23;99865.67;;;23.71;44.80
37291;BME280;23175;-33.706;151.094;2023-03-23T03:18:00;99875.45;;;22.03;46.83
37291;BME280;23175;-33.706;151.094;2023-03-23T03:20:33;99872.06;;;22.67;46.60
37291;BME280;23175;-33.706;151.094;2023-03-23T03:23:07;99870.84;;;25.28;43.84
37291;BME280;23175;-33.706;151.094;2023-03-23T03:25:38;99871.82;;;21.33;49.21
37291;BME280;23175;-33.706;151.094;2023-03-23T03:28:09;99877.22;;;21.54;49.32
37291;BME280;23175;-33.706;151.094;2023-03-23T03:30:39;99871.50;;;21.17;50.51
37291;BME280;23175;-33.706;151.094;2023-03-23T03:33:10;99868.35;;;20.67;50.90
37291;BME280;23175;-33.706;151.094;2023-03-23T03:35:42;99866.80;;;22.86;47.24
37291;BME280;23175;-33.706;151.094;2023-03-23T03:38:13;99863.13;;;20.02;52.24
37291;BME280;23175;-33.706;151.094;2023-03-23T03:40:43;99859.81;;;21.67;50.04
37291;BME280;23175;-33.706;151.094;2023-03-23T03:43:13;99856.23;;;21.43;49.83
37291;BME280;23175;-33.706;151.094;2023-03-23T03:45:43;99858.24;;;21.22;49.64
37291;BME280;23175;-33.706;151.094;2023-03-23T03:48:13;99863.39;;;21.42;49.59
37291;BME280;23175;-33.706;151.094;2023-03-23T03:50:44;99857.43;;;21.59;49.69
37291;BME280;23175;-33.706;151.094;2023-03-23T03:53:14;99843.16;;;20.53;52.38
37291;BME280;23175;-33.706;151.094;2023-03-23T03:55:44;99832.20;;;19.71;52.77
37291;BME280;23175;-33.706;151.094;2023-03-23T03:58:14;99829.46;;;21.46;48.85
37291;BME280;23175;-33.706;151.094;2023-03-23T04:00:45;99838.40;;;21.97;47.72
37291;BME280;23175;-33.706;151.094;2023-03-23T04:03:15;99841.20;;;21.53;49.32
37291;BME280;23175;-33.706;151.094;2023-03-23T04:05:45;99845.54;;;22.00;47.88
37291;BME280;23175;-33.706;151.094;2023-03-23T04:08:15;99840.15;;;20.50;48.89
37291;BME280;23175;-33.706;151.094;2023-03-23T04:10:45;99857.49;;;23.06;45.80
37291;BME280;23175;-33.706;151.094;2023-03-23T04:13:19;99862.68;;;21.09;48.93
37291;BME280;23175;-33.706;151.094;2023-03-23T04:15:50;99861.56;;;20.66;49.48
37291;BME280;23175;-33.706;151.094;2023-03-23T04:18:20;99845.83;;;20.85;47.91
37291;BME280;23175;-33.706;151.094;2023-03-23T04:20:51;99830.73;;;22.35;44.87
37291;BME280;23175;-33.706;151.094;2023-03-23T04:23:23;99817.82;;;21.56;44.86
37291;BME280;23175;-33.706;151.094;2023-03-23T04:25:54;99805.71;;;21.76;45.35
37291;BME280;23175;-33.706;151.094;2023-03-23T04:28:26;99806.98;;;19.88;47.20
37291;BME280;23175;-33.706;151.094;2023-03-23T04:30:57;99802.84;;;20.97;44.52
37291;BME280;23175;-33.706;151.094;2023-03-23T04:33:29;99801.89;;;22.71;42.25
37291;BME280;23175;-33.706;151.094;2023-03-23T04:36:01;99805.19;;;21.13;44.72
37291;BME280;23175;-33.706;151.094;2023-03-23T04:38:31;99818.47;;;20.23;45.66
37291;BME280;23175;-33.706;151.094;2023-03-23T04:41:02;99826.03;;;21.48;43.87
37291;BME280;23175;-33.706;151.094;2023-03-23T04:43:32;99837.18;;;21.02;45.83
37291;BME280;23175;-33.706;151.094;2023-03-23T04:46:02;99861.71;;;20.77;44.91
37291;BME280;23175;-33.706;151.094;2023-03-23T04:48:32;99871.14;;;20.52;46.06
37291;BME280;23175;-33.706;151.094;2023-03-23T04:51:03;99877.04;;;20.31;46.97
37291;BME280;23175;-33.706;151.094;2023-03-23T04:53:34;99874.28;;;20.02;48.71
37291;BME280;23175;-33.706;151.094;2023-03-23T04:56:05;99880.05;;;19.95;49.64
37291;BME280;23175;-33.706;151.094;2023-03-23T04:58:35;99884.13;;;19.39;50.27
37291;BME280;23175;-33.706;151.094;2023-03-23T05:01:06;99884.20;;;20.98;48.32
37291;BME280;23175;-33.706;151.094;2023-03-23T05:03:36;99888.46;;;20.37;48.65
37291;BME280;23175;-33.706;151.094;2023-03-23T05:06:07;99891.41;;;19.96;48.78
37291;BME280;23175;-33.706;151.094;2023-03-23T05:08:38;99901.32;;;21.73;45.88
37291;BME280;23175;-33.706;151.094;2023-03-23T05:11:08;99912.14;;;21.44;47.20
37291;BME280;23175;-33.706;151.094;2023-03-23T05:13:38;99910.25;;;20.95;49.21
37291;BME280;23175;-33.706;151.094;2023-03-23T05:16:09;99905.26;;;22.03;49.33
37291;BME280;23175;-33.706;151.094;2023-03-23T05:18:39;99906.12;;;19.17;55.51
37291;BME280;23175;-33.706;151.094;2023-03-23T05:21:09;99917.15;;;18.39;57.45
37291;BME280;23175;-33.706;151.094;2023-03-23T05:23:39;99928.74;;;20.63;54.95
37291;BME280;23175;-33.706;151.094;2023-03-23T05:26:09;99926.80;;;22.57;51.46
37291;BME280;23175;-33.706;151.094;2023-03-23T05:28:39;99929.92;;;19.92;56.55
37291;BME280;23175;-33.706;151.094;2023-03-23T05:31:09;99934.69;;;20.42;55.52
37291;BME280;23175;-33.706;151.094;2023-03-23T05:33:39;99941.42;;;19.52;57.87
37291;BME280;23175;-33.706;151.094;2023-03-23T05:36:09;99945.96;;;21.10;55.51
37291;BME280;23175;-33.706;151.094;2023-03-23T05:38:39;99948.66;;;21.15;55.16
37291;BME280;23175;-33.706;151.094;2023-03-23T05:41:09;99966.45;;;20.58;56.42
37291;BME280;23175;-33.706;151.094;2023-03-23T05:43:40;99966.75;;;22.00;54.26
37291;BME280;23175;-33.706;151.094;2023-03-23T05:46:11;99973.97;;;19.66;55.51
37291;BME280;23175;-33.706;151.094;2023-03-23T05:48:41;99971.60;;;19.26;54.93
37291;BME280;23175;-33.706;151.094;2023-03-23T05:51:11;99972.13;;;18.64;54.49
37291;BME280;23175;-33.706;151.094;2023-03-23T05:53:41;99969.66;;;17.03;56.78
37291;BME280;23175;-33.706;151.094;2023-03-23T05:56:13;99962.43;;;16.77;56.41
37291;BME280;23175;-33.706;151.094;2023-03-23T05:58:43;99960.76;;;16.97;55.43
37291;BME280;23175;-33.706;151.094;2023-03-23T06:01:12;99956.48;;;19.10;52.07
37291;BME280;23175;-33.706;151.094;2023-03-23T06:03:43;99954.34;;;17.67;54.57
37291;BME280;23175;-33.706;151.094;2023-03-23T06:06:14;99943.55;;;16.50;56.32
37291;BME280;23175;-33.706;151.094;2023-03-23T06:08:46;99934.42;;;17.69;56.24
37291;BME280;23175;-33.706;151.094;2023-03-23T06:11:16;99952.77;;;18.11;55.41
37291;BME280;23175;-33.706;151.094;2023-03-23T06:13:48;99961.70;;;16.57;57.66
37291;BME280;23175;-33.706;151.094;2023-03-23T06:16:18;99965.98;;;18.44;54.71
37291;BME280;23175;-33.706;151.094;2023-03-23T06:18:49;99971.46;;;20.49;50.97
37291;BME280;23175;-33.706;151.094;2023-03-23T06:21:19;99975.89;;;19.65;51.47
37291;BME280;23175;-33.706;151.094;2023-03-23T06:23:49;99975.82;;;19.83;51.55
37291;BME280;23175;-33.706;151.094;2023-03-23T06:26:20;99970.39;;;21.34;48.77
37291;BME280;23175;-33.706;151.094;2023-03-23T06:28:55;99957.81;;;20.66;48.50
37291;BME280;23175;-33.706;151.094;2023-03-23T06:31:26;99945.05;;;20.54;49.50
37291;BME280;23175;-33.706;151.094;2023-03-23T06:34:02;99942.56;;;20.74;49.86
37291;BME280;23175;-33.706;151.094;2023-03-23T06:36:33;99947.56;;;20.40;50.78
37291;BME280;23175;-33.706;151.094;2023-03-23T06:39:03;99941.10;;;21.88;47.74
37291;BME280;23175;-33.706;151.094;2023-03-23T06:41:33;99940.69;;;20.98;49.02
37291;BME280;23175;-33.706;151.094;2023-03-23T06:44:04;99945.80;;;20.44;51.04
37291;BME280;23175;-33.706;151.094;2023-03-23T06:46:35;99950.63;;;21.25;49.28
37291;BME280;23175;-33.706;151.094;2023-03-23T06:49:05;99963.14;;;22.28;47.60
37291;BME280;23175;-33.706;151.094;2023-03-23T06:51:37;99954.29;;;18.89;53.31
37291;BME280;23175;-33.706;151.094;2023-03-23T06:54:08;99942.51;;;20.61;52.04
37291;BME280;23175;-33.706;151.094;2023-03-23T06:56:38;99929.77;;;19.36;54.03
37291;BME280;23175;-33.706;151.094;2023-03-23T06:59:08;99925.95;;;21.59;49.99
37291;BME280;23175;-33.706;151.094;2023-03-23T07:01:39;99932.60;;;22.34;49.37
37291;BME280;23175;-33.706;151.094;2023-03-23T07:04:09;99949.49;;;22.31;49.45
37291;BME280;23175;-33.706;151.094;2023-03-23T07:06:39;99937.66;;;14.89;64.67
37291;BME280;23175;-33.706;151.094;2023-03-23T07:09:10;99917.16;;;15.28;67.53
37291;BME280;23175;-33.706;151.094;2023-03-23T07:11:40;99877.27;;;15.21;68.48
37291;BME280;23175;-33.706;151.094;2023-03-23T07:14:11;99879.46;;;14.50;71.33
37291;BME280;23175;-33.706;151.094;2023-03-23T07:16:41;99864.06;;;14.43;73.50
37291;BME280;23175;-33.706;151.094;2023-03-23T07:19:11;99867.20;;;14.92;73.61
37291;BME280;23175;-33.706;151.094;2023-03-23T07:21:42;99848.64;;;16.88;68.51
37291;BME280;23175;-33.706;151.094;2023-03-23T07:24:13;99843.77;;;15.31;73.34
37291;BME280;23175;-33.706;151.094;2023-03-23T07:26:43;99851.31;;;15.89;70.56
37291;BME280;23175;-33.706;151.094;2023-03-23T07:29:13;99842.90;;;17.77;66.39
37291;BME280;23175;-33.706;151.094;2023-03-23T07:31:43;99798.73;;;17.79;65.07
37291;BME280;23175;-33.706;151.094;2023-03-23T07:34:18;99722.71;;;16.40;67.96
37291;BME280;23175;-33.706;151.094;2023-03-23T07:36:49;99745.35;;;15.56;71.12
37291;BME280;23175;-33.706;151.094;2023-03-23T07:39:19;99750.90;;;15.92;68.44
37291;BME280;23175;-33.706;151.094;2023-03-23T07:41:49;99784.23;;;18.44;64.25
37291;BME280;23175;-33.706;151.094;2023-03-23T07:44:20;99832.04;;;18.21;61.70
37291;BME280;23175;-33.706;151.094;2023-03-23T07:46:50;99841.30;;;16.31;67.29
37291;BME280;23175;-33.706;151.094;2023-03-23T07:49:22;99816.37;;;16.78;67.26
37291;BME280;23175;-33.706;151.094;2023-03-23T07:51:52;99815.07;;;19.18;61.33
37291;BME280;23175;-33.706;151.094;2023-03-23T07:54:23;99807.14;;;19.35;59.87
37291;BME280;23175;-33.706;151.094;2023-03-23T07:56:54;99796.35;;;20.49;57.11
37291;BME280;23175;-33.706;151.094;2023-03-23T07:59:24;99789.34;;;20.66;56.53
37291;BME280;23175;-33.706;151.094;2023-03-23T08:01:55;99790.64;;;21.43;54.33
37291;BME280;23175;-33.706;151.094;2023-03-23T08:04:25;99783.55;;;21.38;55.44
37291;BME280;23175;-33.706;151.094;2023-03-23T08:06:56;99780.73;;;20.89;55.02
37291;BME280;23175;-33.706;151.094;2023-03-23T08:09:26;99793.44;;;21.67;52.55
37291;BME280;23175;-33.706;151.094;2023-03-23T08:11:56;99808.77;;;21.89;52.66
37291;BME280;23175;-33.706;151.094;2023-03-23T08:14:28;99825.83;;;22.43;52.01
37291;BME280;23175;-33.706;151.094;2023-03-23T08:16:59;99817.35;;;22.16;52.02
37291;BME280;23175;-33.706;151.094;2023-03-23T08:19:29;99801.10;;;19.26;57.58
37291;BME280;23175;-33.706;151.094;2023-03-23T08:21:59;99811.01;;;20.91;55.05
37291;BME280;23175;-33.706;151.094;2023-03-23T08:24:29;99854.52;;;21.00;54.74
37291;BME280;23175;-33.706;151.094;2023-03-23T08:27:04;99892.15;;;20.09;56.62
37291;BME280;23175;-33.706;151.094;2023-03-23T08:29:35;99888.02;;;18.51;59.53
37291;BME280;23175;-33.706;151.094;2023-03-23T08:32:05;99869.82;;;16.68;62.64
37291;BME280;23175;-33.706;151.094;2023-03-23T08:34:42;99849.48;;;16.75;63.82
37291;BME280;23175;-33.706;151.094;2023-03-23T08:37:12;99854.82;;;18.03;61.70
37291;BME280;23175;-33.706;151.094;2023-03-23T08:39:43;99851.10;;;18.94;60.83
37291;BME280;23175;-33.706;151.094;2023-03-23T08:42:14;99849.79;;;20.41;56.06
37291;BME280;23175;-33.706;151.094;2023-03-23T08:44:43;99842.52;;;17.75;61.80
37291;BME280;23175;-33.706;151.094;2023-03-23T08:47:14;99850.64;;;18.61;58.39
37291;BME280;23175;-33.706;151.094;2023-03-23T08:49:45;99873.65;;;19.51;57.51
37291;BME280;23175;-33.706;151.094;2023-03-23T08:52:17;99878.23;;;20.83;53.46
37291;BME280;23175;-33.706;151.094;2023-03-23T08:54:47;99870.09;;;21.35;52.41
37291;BME280;23175;-33.706;151.094;2023-03-23T08:57:17;99853.39;;;17.92;60.27
37291;BME280;23175;-33.706;151.094;2023-03-23T08:59:48;99820.30;;;15.55;66.16
37291;BME280;23175;-33.706;151.094;2023-03-23T09:02:19;99812.71;;;16.67;64.99
37291;BME280;23175;-33.706;151.094;2023-03-23T09:04:49;99800.12;;;18.82;61.04
37291;BME280;23175;-33.706;151.094;2023-03-23T09:07:21;99779.38;;;17.84;63.00
37291;BME280;23175;-33.706;151.094;2023-03-23T09:09:52;99779.96;;;19.14;59.83
37291;BME280;23175;-33.706;151.094;2023-03-23T09:12:22;99761.16;;;15.41;67.92
37291;BME280;23175;-33.706;151.094;2023-03-23T09:14:53;99733.05;;;14.16;74.31
37291;BME280;23175;-33.706;151.094;2023-03-23T09:17:23;99694.00;;;18.06;65.42
37291;BME280;23175;-33.706;151.094;2023-03-23T09:19:53;99737.81;;;18.06;65.52
37291;BME280;23175;-33.706;151.094;2023-03-23T09:22:23;99830.84;;;19.47;60.70
37291;BME280;23175;-33.706;151.094;2023-03-23T09:24:54;99870.63;;;15.05;70.46
37291;BME280;23175;-33.706;151.094;2023-03-23T09:27:24;99858.62;;;15.60;69.96
37291;BME280;23175;-33.706;151.094;2023-03-23T09:29:55;99870.45;;;14.64;72.94
37291;BME280;23175;-33.706;151.094;2023-03-23T09:32:25;99884.71;;;17.57;65.90
37291;BME280;23175;-33.706;151.094;2023-03-23T09:35:00;99881.94;;;18.64;63.29
37291;BME280;23175;-33.706;151.094;2023-03-23T09:37:31;99878.96;;;19.71;60.23
37291;BME280;23175;-33.706;151.094;2023-03-23T09:40:01;99878.11;;;16.47;66.80
37291;BME280;23175;-33.706;151.094;2023-03-23T09:42:41;99876.73;;;16.70;66.18
37291;BME280;23175;-33.706;151.094;2023-03-23T09:45:19;99883.67;;;18.68;62.17
37291;BME280;23175;-33.706;151.094;2023-03-23T09:48:06;99888.31;;;20.49;57.85
37291;BME280;23175;-33.706;151.094;2023-03-23T09:50:41;99898.26;;;21.62;55.50
37291;BME280;23175;-33.706;151.094;2023-03-23T09:53:17;99898.81;;;20.16;57.78
37291;BME280;23175;-33.706;151.094;2023-03-23T09:55:48;99904.63;;;21.93;54.45
37291;BME280;23175;-33.706;151.094;2023-03-23T09:58:23;99914.26;;;21.63;53.91
37291;BME280;23175;-33.706;151.094;2023-03-23T10:01:07;99919.57;;;21.73;54.22
37291;BME280;23175;-33.706;151.094;2023-03-23T10:03:41;99922.24;;;20.35;56.63
37291;BME280;23175;-33.706;151.094;2023-03-23T10:06:14;99937.60;;;19.38;58.68
37291;BME280;23175;-33.706;151.094;2023-03-23T10:08:49;99936.94;;;21.77;53.56
37291;BME280;23175;-33.706;151.094;2023-03-23T10:11:27;99940.52;;;22.16;52.69
37291;BME280;23175;-33.706;151.094;2023-03-23T10:14:11;99940.37;;;20.81;53.79
37291;BME280;23175;-33.706;151.094;2023-03-23T10:16:46;99941.68;;;21.19;54.23
37291;BME280;23175;-33.706;151.094;2023-03-23T10:19:23;99932.84;;;22.33;51.77
37291;BME280;23175;-33.706;151.094;2023-03-23T10:22:03;99928.47;;;22.75;51.54
37291;BME280;23175;-33.706;151.094;2023-03-23T10:24:38;99924.76;;;22.04;52.25
37291;BME280;23175;-33.706;151.094;2023-03-23T10:27:20;99919.15;;;21.70;52.19
37291;BME280;23175;-33.706;151.094;2023-03-23T10:30:00;99922.12;;;22.43;51.15
37291;BME280;23175;-33.706;151.094;2023-03-23T10:32:51;99925.10;;;22.16;51.23
37291;BME280;23175;-33.706;151.094;2023-03-23T10:35:32;99923.58;;;22.29;50.84
37291;BME280;23175;-33.706;151.094;2023-03-23T10:38:10;99928.81;;;22.06;50.46
37291;BME280;23175;-33.706;151.094;2023-03-23T10:40:49;99931.61;;;22.09;50.35
37291;BME280;23175;-33.706;151.094;2023-03-23T10:43:19;99927.91;;;22.00;50.48
37291;BME280;23175;-33.706;151.094;2023-03-23T10:45:57;99922.24;;;22.75;50.23
37291;BME280;23175;-33.706;151.094;2023-03-23T10:48:33;99919.00;;;22.18;50.06
37291;BME280;23175;-33.706;151.094;2023-03-23T10:51:11;99913.59;;;22.44;50.12
37291;BME280;23175;-33.706;151.094;2023-03-23T10:53:46;99910.36;;;22.31;50.01
37291;BME280;23175;-33.706;151.094;2023-03-23T10:56:24;99905.42;;;22.48;50.14
37291;BME280;23175;-33.706;151.094;2023-03-23T10:58:55;99899.74;;;22.36;50.09
37291;BME280;23175;-33.706;151.094;2023-03-23T11:01:32;99898.86;;;21.82;50.43
37291;BME280;23175;-33.706;151.094;2023-03-23T11:04:02;99898.03;;;22.01;50.14
37291;BME280;23175;-33.706;151.094;2023-03-23T11:06:34;99898.43;;;21.83;50.18
37291;BME280;23175;-33.706;151.094;2023-03-23T11:09:10;99896.68;;;22.44;50.38
37291;BME280;23175;-33.706;151.094;2023-03-23T11:11:43;99891.97;;;22.21;50.29
37291;BME280;23175;-33.706;151.094;2023-03-23T11:14:18;99890.93;;;22.37;50.05
37291;BME280;23175;-33.706;151.094;2023-03-23T11:16:53;99890.87;;;22.48;50.32
37291;BME280;23175;-33.706;151.094;2023-03-23T11:19:26;99891.10;;;21.75;50.80
37291;BME280;23175;-33.706;151.094;2023-03-23T11:21:59;99886.89;;;21.76;51.04
37291;BME280;23175;-33.706;151.094;2023-03-23T11:24:31;99890.96;;;22.02;50.40
37291;BME280;23175;-33.706;151.094;2023-03-23T11:27:01;99892.22;;;21.53;50.74
37291;BME280;23175;-33.706;151.094;2023-03-23T11:29:33;99891.29;;;21.96;50.23
37291;BME280;23175;-33.706;151.094;2023-03-23T11:32:06;99895.77;;;21.61;50.82
37291;BME280;23175;-33.706;151.094;2023-03-23T11:34:43;99910.52;;;21.98;50.18
37291;BME280;23175;-33.706;151.094;2023-03-23T11:37:19;99910.10;;;22.19;50.33
37291;BME280;23175;-33.706;151.094;2023-03-23T11:39:56;99911.41;;;21.92;50.18
37291;BME280;23175;-33.706;151.094;2023-03-23T11:42:35;99906.53;;;22.29;50.08
37291;BME280;23175;-33.706;151.094;2023-03-23T11:45:18;99904.92;;;22.25;50.00
37291;BME280;23175;-33.706;151.094;2023-03-23T11:47:59;99899.54;;;21.54;50.74
37291;BME280;23175;-33.706;151.094;2023-03-23T11:50:43;99897.02;;;21.71;50.44
37291;BME280;23175;-33.706;151.094;2023-03-23T11:53:20;99901.55;;;22.28;50.05
37291;BME280;23175;-33.706;151.094;2023-03-23T11:56:00;99904.76;;;21.93;49.93
37291;BME280;23175;-33.706;151.094;2023-03-23T11:58:31;99906.38;;;22.01;49.89
37291;BME280;23175;-33.706;151.094;2023-03-23T12:01:06;99906.43;;;21.56;50.21
37291;BME280;23175;-33.706;151.094;2023-03-23T12:03:54;99904.06;;;21.92;49.91
37291;BME280;23175;-33.706;151.094;2023-03-23T12:06:36;99903.48;;;22.05;49.59
37291;BME280;23175;-33.706;151.094;2023-03-23T12:09:21;99901.53;;;22.05;49.95
37291;BME280;23175;-33.706;151.094;2023-03-23T12:12:04;99901.11;;;22.25;50.03
37291;BME280;23175;-33.706;151.094;2023-03-23T12:14:40;99901.28;;;22.09;50.24
37291;BME280;23175;-33.706;151.094;2023-03-23T12:17:23;99898.70;;;21.52;50.66
37291;BME280;23175;-33.706;151.094;2023-03-23T12:20:08;99894.18;;;21.30;50.76
37291;BME280;23175;-33.706;151.094;2023-03-23T12:22:49;99892.29;;;21.56;50.42
37291;BME280;23175;-33.706;151.094;2023-03-23T12:25:46;99892.92;;;20.74;51.69
37291;BME280;23175;-33.706;151.094;2023-03-23T12:28:28;99891.12;;;19.02;55.34
37291;BME280;23175;-33.706;151.094;2023-03-23T12:31:10;99885.44;;;20.37;52.10
37291;BME280;23175;-33.706;151.094;2023-03-23T12:33:52;99881.67;;;20.86;52.72
37291;BME280;23175;-33.706;151.094;2023-03-23T12:36:34;99883.47;;;19.24;55.71
37291;BME280;23175;-33.706;151.094;2023-03-23T12:39:40;99882.43;;;20.67;53.78
37291;BME280;23175;-33.706;151.094;2023-03-23T12:42:18;99879.82;;;20.31;53.81
37291;BME280;23175;-33.706;151.094;2023-03-23T12:45:11;99875.41;;;21.01;53.58
37291;BME280;23175;-33.706;151.094;2023-03-23T12:47:45;99868.30;;;21.49;52.30
37291;BME280;23175;-33.706;151.094;2023-03-23T12:50:20;99865.21;;;20.46;53.89
37291;BME280;23175;-33.706;151.094;2023-03-23T12:52:58;99863.34;;;21.35;52.01
37291;BME280;23175;-33.706;151.094;2023-03-23T12:55:34;99861.29;;;17.98;57.96
37291;BME280;23175;-33.706;151.094;2023-03-23T12:58:09;99844.46;;;20.95;52.73
37291;BME280;23175;-33.706;151.094;2023-03-23T13:00:54;99843.89;;;20.37;54.02
37291;BME280;23175;-33.706;151.094;2023-03-23T13:03:31;99836.57;;;21.25;52.13